Time;durP1;ratioP1;P1;durP2;ratioP2;P2;SDS_P1;SDS_P2;PMS_P1;PMS_P2;Temp;Humidity;BMP_temperature;BMP_pressure;BME280_temperature;BME280_humidity;BME280_pressure;Samples;Min_cycle;Max_cycle;Signal;HPM_P1;HPM_P2
2022/07/04 00:01:31;;;;;;;;;;;27.10;89.90;;;;;;5056781;28;19925;-53
2022/07/04 00:03:58;;;;;;;;;;;27.10;89.90;;;;;;5049469;28;20383;-55
2022/07/04 00:06:25;;;;;;;;;;;27.10;90.00;;;;;;5049436;28;19924;-55
2022/07/04 00:08:52;;;;;;;;;;;27.10;90.00;;;;;;5049720;28;19931;-54
2022/07/04 00:11:20;;;;;;;;;;;27.10;90.00;;;;;;5057124;28;19924;-50
2022/07/04 00:13:47;;;;;;;;;;;27.10;90.00;;;;;;5052626;28;19949;-54
2022/07/04 00:16:14;;;;;;;;;;;27.10;90.00;;;;;;5055818;28;19924;-55
2022/07/04 00:18:41;;;;;;;;;;;27.10;89.90;;;;;;5048628;28;19932;-55
2022/07/04 00:21:08;;;;;;;;;;;27.10;89.90;;;;;;5048616;28;20309;-53
2022/07/04 00:23:35;;;;;;;;;;;27.10;89.90;;;;;;5049303;28;20402;-54
2022/07/04 00:26:02;;;;;;;;;;;27.10;90.20;;;;;;5047548;28;19925;-53
2022/07/04 00:28:29;;;;;;;;;;;27.10;90.00;;;;;;5055997;28;20372;-55
2022/07/04 00:30:57;;;;;;;;;;;27.10;89.90;;;;;;5054230;28;19929;-55
2022/07/04 00:33:24;;;;;;;;;;;27.10;89.90;;;;;;5071457;28;19924;-55
2022/07/04 00:35:51;;;;;;;;;;;27.10;89.90;;;;;;5053420;28;20392;-55
2022/07/04 00:38:18;;;;;;;;;;;27.10;90.00;;;;;;5047515;28;19924;-51
2022/07/04 00:40:45;;;;;;;;;;;27.10;90.00;;;;;;5051821;28;19921;-54
2022/07/04 00:43:12;;;;;;;;;;;27.10;90.00;;;;;;5049963;28;19924;-54
2022/07/04 00:45:39;;;;;;;;;;;27.10;90.00;;;;;;5049628;28;20272;-56
2022/07/04 00:48:07;;;;;;;;;;;27.10;90.00;;;;;;5049379;28;20148;-50
2022/07/04 00:50:34;;;;;;;;;;;27.00;90.00;;;;;;5051883;28;19920;-53
2022/07/04 00:53:02;;;;;;;;;;;27.10;90.00;;;;;;5056563;28;19924;-52
2022/07/04 00:55:29;;;;;;;;;;;27.10;90.10;;;;;;5048702;28;19943;-54
2022/07/04 00:57:56;;;;;;;;;;;27.10;90.00;;;;;;5047972;28;19924;-56
2022/07/04 01:00:23;;;;;;;;;;;27.10;90.10;;;;;;5047932;28;19924;-50
2022/07/04 01:02:50;;;;;;;;;;;27.00;90.10;;;;;;5046872;28;19931;-52
2022/07/04 01:05:17;;;;;;;;;;;27.00;90.00;;;;;;5062399;28;20502;-54
2022/07/04 01:07:45;;;;;;;;;;;27.00;90.00;;;;;;5048150;28;20000;-55
2022/07/04 01:10:12;;;;;;;;;;;27.00;90.00;;;;;;5047436;28;20379;-53
2022/07/04 01:12:39;;;;;;;;;;;27.00;90.00;;;;;;5056783;28;20395;-52
2022/07/04 01:15:06;;;;;;;;;;;27.00;90.00;;;;;;5010409;28;1086932;-52
2022/07/04 01:17:34;;;;;;;;;;;27.00;90.00;;;;;;5061029;28;19921;-53
2022/07/04 01:20:02;;;;;;;;;;;27.00;90.00;;;;;;5047936;28;20415;-55
2022/07/04 01:22:29;;;;;;;;;;;27.00;90.00;;;;;;5049100;28;20315;-55
2022/07/04 01:24:56;;;;;;;;;;;27.10;90.00;;;;;;5045933;28;20475;-54
2022/07/04 01:27:23;;;;;;;;;;;27.00;90.10;;;;;;5050593;28;19932;-52
2022/07/04 01:29:50;;;;;;;;;;;27.00;90.00;;;;;;5062444;28;20394;-57
2022/07/04 01:32:18;;;;;;;;;;;27.00;90.00;;;;;;5054726;28;20415;-53
2022/07/04 01:34:45;;;;;;;;;;;27.00;90.10;;;;;;5063477;28;19924;-55
2022/07/04 01:37:12;;;;;;;;;;;27.00;90.10;;;;;;5049161;28;19921;-55
2022/07/04 01:39:40;;;;;;;;;;;27.00;90.00;;;;;;5048234;28;19931;-53
2022/07/04 01:42:07;;;;;;;;;;;27.00;90.00;;;;;;5060717;28;20304;-53
2022/07/04 01:44:34;;;;;;;;;;;27.00;90.10;;;;;;5047807;28;20423;-55
2022/07/04 01:47:02;;;;;;;;;;;27.00;90.00;;;;;;5049642;28;19925;-51
2022/07/04 01:49:29;;;;;;;;;;;26.90;90.00;;;;;;5049044;28;19925;-52
2022/07/04 01:51:56;;;;;;;;;;;27.00;90.10;;;;;;5048768;28;19932;-55
2022/07/04 01:54:24;;;;;;;;;;;27.00;90.10;;;;;;5046467;28;20004;-55
2022/07/04 01:56:52;;;;;;;;;;;27.00;90.00;;;;;;5047671;28;19928;-53
2022/07/04 02:01:29;;;;;;;;;;;26.90;90.00;;;;;;5051950;28;20304;-53
2022/07/04 02:02:06;;;;;;;;;;;26.90;90.00;;;;;;5066453;28;19924;-53
2022/07/04 02:04:37;;;;;;;;;;;26.90;90.10;;;;;;5049016;28;19925;-49
2022/07/04 02:07:04;;;;;;;;;;;26.90;90.00;;;;;;5062053;28;19921;-51
2022/07/04 02:09:31;;;;;;;;;;;26.90;90.10;;;;;;5062476;28;19924;-54
2022/07/04 02:14:44;;;;;;;;;;;26.90;90.00;;;;;;5049160;28;20510;-50
2022/07/04 02:17:11;;;;;;;;;;;26.90;90.10;;;;;;5050248;28;19924;-55
2022/07/04 02:19:38;;;;;;;;;;;26.90;90.10;;;;;;5048505;28;19936;-53
2022/07/04 02:22:05;;;;;;;;;;;26.90;90.10;;;;;;5049566;28;19920;-55
2022/07/04 02:24:33;;;;;;;;;;;26.90;90.10;;;;;;5048254;28;20135;-55
2022/07/04 02:27:00;;;;;;;;;;;26.90;90.10;;;;;;5048864;28;20391;-57
2022/07/04 02:29:27;;;;;;;;;;;26.90;90.10;;;;;;5048194;28;20408;-54
2022/07/04 02:31:54;;;;;;;;;;;26.90;90.10;;;;;;5049012;28;20304;-55
2022/07/04 02:34:21;;;;;;;;;;;26.90;90.10;;;;;;5046838;28;19996;-52
2022/07/04 02:36:48;;;;;;;;;;;26.90;90.10;;;;;;5048297;28;19932;-54
2022/07/04 02:39:16;;;;;;;;;;;26.80;90.10;;;;;;5047664;28;19924;-54
2022/07/04 02:41:43;;;;;;;;;;;26.90;90.10;;;;;;5050791;28;19921;-53
2022/07/04 02:44:10;;;;;;;;;;;26.80;90.10;;;;;;5047020;28;19947;-52
2022/07/04 02:46:37;;;;;;;;;;;26.80;90.10;;;;;;5048346;28;19944;-51
2022/07/04 02:49:05;;;;;;;;;;;26.90;90.10;;;;;;5047463;28;19924;-55
2022/07/04 02:51:32;;;;;;;;;;;26.80;90.10;;;;;;5053073;28;19948;-51
2022/07/04 02:53:59;;;;;;;;;;;26.80;90.10;;;;;;5047035;28;20396;-53
2022/07/04 02:56:26;;;;;;;;;;;26.80;90.10;;;;;;5047969;28;19921;-52
2022/07/04 02:58:54;;;;;;;;;;;26.80;90.10;;;;;;5049916;28;19924;-53
2022/07/04 03:01:21;;;;;;;;;;;26.80;90.10;;;;;;5051706;28;19939;-51
2022/07/04 03:03:48;;;;;;;;;;;26.80;90.10;;;;;;5046681;28;19931;-52
2022/07/04 03:06:16;;;;;;;;;;;26.80;90.20;;;;;;5049634;28;19935;-51
2022/07/04 03:08:43;;;;;;;;;;;26.80;90.20;;;;;;5051430;28;20277;-50
2022/07/04 03:11:10;;;;;;;;;;;26.80;90.20;;;;;;5050745;28;20367;-55
2022/07/04 03:13:39;;;;;;;;;;;26.80;90.20;;;;;;5050537;28;20407;-51
2022/07/04 03:16:07;;;;;;;;;;;26.70;90.20;;;;;;5052703;28;19948;-55
2022/07/04 03:18:34;;;;;;;;;;;26.70;90.20;;;;;;5049501;28;19928;-53
2022/07/04 03:21:01;;;;;;;;;;;26.70;90.20;;;;;;5051867;28;20286;-52
2022/07/04 03:23:28;;;;;;;;;;;26.70;90.20;;;;;;5050357;28;19928;-53
2022/07/04 03:25:55;;;;;;;;;;;26.70;90.20;;;;;;5053979;28;20225;-49
2022/07/04 03:28:22;;;;;;;;;;;26.70;90.20;;;;;;5056624;28;20497;-51
2022/07/04 03:30:50;;;;;;;;;;;26.70;90.20;;;;;;5060373;28;20338;-55
2022/07/04 03:33:17;;;;;;;;;;;26.70;90.20;;;;;;5052509;28;19932;-51
2022/07/04 03:35:44;;;;;;;;;;;26.70;90.30;;;;;;5050212;28;19932;-53
2022/07/04 03:38:11;;;;;;;;;;;26.70;90.20;;;;;;5049632;28;19925;-53
2022/07/04 03:40:38;;;;;;;;;;;26.70;90.30;;;;;;5052108;28;19932;-52
2022/07/04 03:43:06;;;;;;;;;;;26.70;90.30;;;;;;5052640;28;20322;-49
2022/07/04 03:45:33;;;;;;;;;;;26.70;90.30;;;;;;5052107;28;20485;-53
2022/07/04 03:48:03;;;;;;;;;;;26.60;90.20;;;;;;5069880;28;19924;-52
2022/07/04 03:50:30;;;;;;;;;;;26.70;90.30;;;;;;5050816;28;20288;-54
2022/07/04 03:52:57;;;;;;;;;;;26.60;90.30;;;;;;5050573;28;19920;-53
2022/07/04 03:55:24;;;;;;;;;;;26.60;90.30;;;;;;5049716;28;19921;-52
2022/07/04 03:57:51;;;;;;;;;;;26.60;90.30;;;;;;5051710;28;19925;-58
2022/07/04 04:00:19;;;;;;;;;;;26.60;90.30;;;;;;5060503;28;19920;-52
2022/07/04 04:02:46;;;;;;;;;;;26.60;90.30;;;;;;5049485;28;19932;-54
2022/07/04 04:05:26;;;;;;;;;;;26.60;90.30;;;;;;5049414;28;19931;-50
2022/07/04 04:08:00;;;;;;;;;;;26.60;90.30;;;;;;5050421;28;19925;-52
2022/07/04 04:10:28;;;;;;;;;;;26.60;90.30;;;;;;5051133;28;20391;-55
2022/07/04 04:12:56;;;;;;;;;;;26.60;90.30;;;;;;5054252;28;19963;-53
2022/07/04 04:15:24;;;;;;;;;;;26.60;90.30;;;;;;5051165;28;19921;-53
2022/07/04 04:17:51;;;;;;;;;;;26.60;90.30;;;;;;5055758;28;20359;-55
2022/07/04 04:20:18;;;;;;;;;;;26.60;90.30;;;;;;5050103;28;19944;-53
2022/07/04 04:22:45;;;;;;;;;;;26.60;90.30;;;;;;5048945;28;19928;-52
2022/07/04 04:25:12;;;;;;;;;;;26.60;90.30;;;;;;5048836;28;19928;-55
2022/07/04 04:27:39;;;;;;;;;;;26.60;90.30;;;;;;5068470;28;19927;-52
2022/07/04 04:30:07;;;;;;;;;;;26.60;90.30;;;;;;5053516;28;19924;-53
2022/07/04 04:32:34;;;;;;;;;;;26.60;90.30;;;;;;5049731;28;19935;-54
2022/07/04 04:35:01;;;;;;;;;;;26.60;90.30;;;;;;5048883;28;19932;-53
2022/07/04 04:37:29;;;;;;;;;;;26.60;90.40;;;;;;5049040;28;19924;-54
2022/07/04 04:39:56;;;;;;;;;;;26.60;90.30;;;;;;5048754;28;19925;-55
2022/07/04 04:42:23;;;;;;;;;;;26.60;90.30;;;;;;5049392;28;19924;-50
2022/07/04 04:44:50;;;;;;;;;;;26.60;90.30;;;;;;5049840;28;20452;-53
2022/07/04 04:47:18;;;;;;;;;;;26.60;90.30;;;;;;5054859;28;19947;-55
2022/07/04 04:49:45;;;;;;;;;;;26.60;90.30;;;;;;5060145;28;20316;-53
2022/07/04 04:52:12;;;;;;;;;;;26.60;90.30;;;;;;5072541;28;19921;-52
2022/07/04 04:54:39;;;;;;;;;;;26.60;90.30;;;;;;5049264;28;19921;-54
2022/07/04 04:57:06;;;;;;;;;;;26.60;90.40;;;;;;5053487;28;19924;-57
2022/07/04 04:59:34;;;;;;;;;;;26.60;90.40;;;;;;5050954;28;20329;-58
2022/07/04 05:02:01;;;;;;;;;;;26.60;90.40;;;;;;5063779;28;19929;-56
2022/07/04 05:04:28;;;;;;;;;;;26.60;90.40;;;;;;5048661;28;19944;-52
2022/07/04 05:06:56;;;;;;;;;;;26.60;90.30;;;;;;5049563;28;19920;-54
2022/07/04 05:09:23;;;;;;;;;;;26.60;90.30;;;;;;5053773;28;19931;-51
2022/07/04 05:11:50;;;;;;;;;;;26.60;90.30;;;;;;5054716;28;19924;-51
2022/07/04 05:14:20;;;;;;;;;;;26.60;90.30;;;;;;5053032;28;19931;-58
2022/07/04 05:16:48;;;;;;;;;;;26.60;90.40;;;;;;5051913;28;19920;-54
2022/07/04 05:19:15;;;;;;;;;;;26.60;90.40;;;;;;5058394;28;19929;-55
2022/07/04 05:21:42;;;;;;;;;;;26.60;90.40;;;;;;5055972;28;19921;-51
2022/07/04 05:24:11;;;;;;;;;;;26.60;90.40;;;;;;5048875;28;19928;-52
2022/07/04 05:26:38;;;;;;;;;;;26.60;90.40;;;;;;5050733;28;19925;-53
2022/07/04 05:29:05;;;;;;;;;;;26.60;90.40;;;;;;5050016;28;20407;-51
2022/07/04 05:31:33;;;;;;;;;;;26.60;90.40;;;;;;5060462;28;19938;-53
2022/07/04 05:34:00;;;;;;;;;;;26.60;90.40;;;;;;5055298;28;19936;-54
2022/07/04 05:36:27;;;;;;;;;;;26.60;90.50;;;;;;5049651;28;19920;-54
2022/07/04 05:38:56;;;;;;;;;;;26.60;90.50;;;;;;5050610;28;20284;-55
2022/07/04 05:41:24;;;;;;;;;;;26.60;90.50;;;;;;5054474;28;19987;-56
2022/07/04 05:43:51;;;;;;;;;;;26.60;90.50;;;;;;5048220;28;19929;-53
2022/07/04 05:46:24;;;;;;;;;;;26.60;90.50;;;;;;5051477;28;19927;-52
2022/07/04 05:48:52;;;;;;;;;;;26.60;90.50;;;;;;5048283;28;20280;-54
2022/07/04 05:51:19;;;;;;;;;;;26.60;90.50;;;;;;5049885;28;19921;-55
2022/07/04 05:53:46;;;;;;;;;;;26.60;90.50;;;;;;5048027;28;19924;-56
2022/07/04 05:56:13;;;;;;;;;;;26.60;90.50;;;;;;5049285;28;20300;-53
2022/07/04 05:58:41;;;;;;;;;;;26.60;90.50;;;;;;5048530;28;19924;-56
2022/07/04 06:01:08;;;;;;;;;;;26.60;90.50;;;;;;5051478;28;19925;-52
2022/07/04 06:03:38;;;;;;;;;;;26.60;90.50;;;;;;5056558;28;20023;-53
2022/07/04 06:06:05;;;;;;;;;;;26.60;90.80;;;;;;5054546;28;19925;-50
2022/07/04 06:08:32;;;;;;;;;;;26.60;90.80;;;;;;5048709;28;19925;-50
2022/07/04 06:11:00;;;;;;;;;;;26.60;90.50;;;;;;5055679;28;20458;-53
2022/07/04 06:13:27;;;;;;;;;;;26.60;90.50;;;;;;5052310;28;20383;-54
2022/07/04 06:15:54;;;;;;;;;;;26.60;90.50;;;;;;5063261;28;19928;-52
2022/07/04 06:18:22;;;;;;;;;;;26.60;90.50;;;;;;5058101;28;19924;-50
2022/07/04 06:20:49;;;;;;;;;;;26.60;90.50;;;;;;5048369;28;20474;-53
2022/07/04 06:23:16;;;;;;;;;;;26.60;90.50;;;;;;5047190;28;20404;-56
2022/07/04 06:25:43;;;;;;;;;;;26.60;90.50;;;;;;5049163;28;19928;-54
2022/07/04 06:28:10;;;;;;;;;;;26.60;90.50;;;;;;5047881;28;19920;-56
2022/07/04 06:30:57;;;;;;;;;;;26.60;90.50;;;;;;5048260;28;19924;-56
2022/07/04 06:33:24;;;;;;;;;;;26.60;90.50;;;;;;5047743;28;19920;-53
2022/07/04 06:35:54;;;;;;;;;;;26.60;90.50;;;;;;5057085;28;20424;-51
2022/07/04 06:38:28;;;;;;;;;;;26.60;90.50;;;;;;5058111;28;19935;-52
2022/07/04 06:40:57;;;;;;;;;;;26.60;90.50;;;;;;5067173;28;20683;-52
2022/07/04 06:43:24;;;;;;;;;;;26.60;90.50;;;;;;5057149;28;19924;-52
2022/07/04 06:45:52;;;;;;;;;;;26.60;90.50;;;;;;5054010;28;19924;-50
2022/07/04 06:48:19;;;;;;;;;;;26.60;90.60;;;;;;5062434;28;19924;-53
2022/07/04 06:50:47;;;;;;;;;;;26.60;90.60;;;;;;5054025;28;20006;-50
2022/07/04 06:53:14;;;;;;;;;;;26.60;90.60;;;;;;5051550;28;19925;-51
2022/07/04 06:55:42;;;;;;;;;;;26.60;90.60;;;;;;5052359;28;19931;-51
2022/07/04 06:58:09;;;;;;;;;;;26.60;90.60;;;;;;5051159;28;19921;-52
2022/07/04 07:00:36;;;;;;;;;;;26.60;90.60;;;;;;5052117;28;20399;-53
2022/07/04 07:03:04;;;;;;;;;;;26.60;90.60;;;;;;5050165;28;19920;-51
2022/07/04 07:05:31;;;;;;;;;;;26.60;90.60;;;;;;5052416;28;19925;-49
2022/07/04 07:08:19;;;;;;;;;;;26.60;90.60;;;;;;5053327;28;19921;-54
2022/07/04 07:10:46;;;;;;;;;;;26.60;90.60;;;;;;5050892;28;19929;-53
2022/07/04 07:13:14;;;;;;;;;;;26.60;90.60;;;;;;5050565;28;19921;-50
2022/07/04 07:15:41;;;;;;;;;;;26.60;90.70;;;;;;5051999;28;19925;-53
2022/07/04 07:18:08;;;;;;;;;;;26.60;90.70;;;;;;5054017;28;19925;-57
2022/07/04 07:20:35;;;;;;;;;;;26.60;90.70;;;;;;5050659;28;19932;-56
2022/07/04 07:23:03;;;;;;;;;;;26.60;90.70;;;;;;5051246;28;20316;-54
2022/07/04 07:25:30;;;;;;;;;;;26.60;90.70;;;;;;5057579;28;20019;-52
2022/07/04 07:27:57;;;;;;;;;;;26.60;90.70;;;;;;5052005;28;19921;-55
2022/07/04 07:30:25;;;;;;;;;;;26.60;90.70;;;;;;5051721;28;19920;-54
2022/07/04 07:32:52;;;;;;;;;;;26.60;90.70;;;;;;5065485;28;20143;-55
2022/07/04 07:35:21;;;;;;;;;;;26.60;90.70;;;;;;5052452;28;20289;-56
2022/07/04 07:37:49;;;;;;;;;;;26.60;90.80;;;;;;5055133;28;19921;-54
2022/07/04 07:40:16;;;;;;;;;;;26.60;90.80;;;;;;5051004;28;19948;-54
2022/07/04 07:42:43;;;;;;;;;;;26.60;90.80;;;;;;5056588;28;20833;-53
2022/07/04 07:45:10;;;;;;;;;;;26.60;90.80;;;;;;5053818;28;20343;-54
2022/07/04 07:47:37;;;;;;;;;;;26.60;90.80;;;;;;5053593;28;19935;-52
2022/07/04 07:50:05;;;;;;;;;;;26.60;90.80;;;;;;5050627;28;20278;-54
2022/07/04 07:52:32;;;;;;;;;;;26.60;90.90;;;;;;5061712;28;19931;-54
2022/07/04 07:54:59;;;;;;;;;;;26.60;91.20;;;;;;5050590;28;19925;-54
2022/07/04 07:57:28;;;;;;;;;;;26.60;90.90;;;;;;5051339;28;19927;-55
2022/07/04 07:59:56;;;;;;;;;;;26.60;90.90;;;;;;5059581;28;20374;-55
2022/07/04 08:04:34;;;;;;;;;;;26.70;90.90;;;;;;5080704;28;19928;-56
2022/07/04 08:05:12;;;;;;;;;;;26.60;90.90;;;;;;5069876;28;19931;-52
2022/07/04 08:07:39;;;;;;;;;;;26.60;90.90;;;;;;5051286;28;19932;-56
2022/07/04 08:10:07;;;;;;;;;;;26.60;90.90;;;;;;5050519;28;19925;-51
2022/07/04 08:12:35;;;;;;;;;;;26.70;90.90;;;;;;5053394;28;19920;-50
2022/07/04 08:15:02;;;;;;;;;;;26.70;91.00;;;;;;5049325;28;20312;-56
2022/07/04 08:17:34;;;;;;;;;;;26.70;91.00;;;;;;5052025;28;19928;-54
2022/07/04 08:20:03;;;;;;;;;;;26.60;90.90;;;;;;5050534;28;19932;-56
2022/07/04 08:22:30;;;;;;;;;;;26.70;91.00;;;;;;5051002;28;20256;-53
2022/07/04 08:24:57;;;;;;;;;;;26.70;91.00;;;;;;5050855;28;19925;-53
2022/07/04 08:27:24;;;;;;;;;;;26.70;91.00;;;;;;5051583;28;19921;-57
2022/07/04 08:29:59;;;;;;;;;;;26.60;91.00;;;;;;5052273;28;19925;-55
2022/07/04 08:32:27;;;;;;;;;;;26.70;91.00;;;;;;5052252;28;19932;-57
2022/07/04 08:34:57;;;;;;;;;;;26.70;91.00;;;;;;5052041;28;19921;-57
2022/07/04 08:37:24;;;;;;;;;;;26.70;91.10;;;;;;5063257;28;20438;-54
2022/07/04 08:39:51;;;;;;;;;;;26.70;91.00;;;;;;5057889;28;19925;-55
2022/07/04 08:42:19;;;;;;;;;;;26.70;91.10;;;;;;5066601;28;19920;-58
2022/07/04 08:44:50;;;;;;;;;;;26.70;91.00;;;;;;5054585;28;20204;-53
2022/07/04 08:47:19;;;;;;;;;;;26.60;91.00;;;;;;5065183;28;19925;-53
2022/07/04 08:49:52;;;;;;;;;;;26.70;91.10;;;;;;5049880;28;19932;-52
2022/07/04 08:52:27;;;;;;;;;;;26.70;91.10;;;;;;5050392;28;19936;-55
2022/07/04 09:00:31;;;;;;;;;;;26.70;91.10;;;;;;5056099;28;20388;-53
2022/07/04 09:03:00;;;;;;;;;;;26.70;91.10;;;;;;5052025;28;19925;-52
2022/07/04 09:05:27;;;;;;;;;;;26.70;91.10;;;;;;5050459;28;19920;-53
2022/07/04 09:07:55;;;;;;;;;;;26.70;91.10;;;;;;5048211;28;19920;-52
2022/07/04 09:10:22;;;;;;;;;;;26.70;91.10;;;;;;5048905;28;19920;-53
2022/07/04 09:12:49;;;;;;;;;;;26.70;91.10;;;;;;5049561;28;19922;-54
2022/07/04 09:15:37;;;;;;;;;;;26.70;91.10;;;;;;5050944;28;19936;-53
2022/07/04 09:18:04;;;;;;;;;;;26.70;91.20;;;;;;5048896;28;19924;-56
2022/07/04 09:20:33;;;;;;;;;;;26.70;91.10;;;;;;5049996;28;19931;-55
2022/07/04 09:23:00;;;;;;;;;;;26.70;91.10;;;;;;5047928;28;20365;-54
2022/07/04 09:25:27;;;;;;;;;;;26.60;91.10;;;;;;5050933;28;19945;-57
2022/07/04 09:27:56;;;;;;;;;;;26.70;91.20;;;;;;5048720;28;19921;-50
2022/07/04 09:30:27;;;;;;;;;;;26.70;91.10;;;;;;5050840;28;19925;-52
2022/07/04 09:33:00;;;;;;;;;;;26.70;91.10;;;;;;5048010;28;20395;-53
2022/07/04 09:35:28;;;;;;;;;;;26.70;91.20;;;;;;5056238;28;19920;-55
2022/07/04 09:37:57;;;;;;;;;;;26.70;91.20;;;;;;5047909;28;19931;-50
2022/07/04 09:40:26;;;;;;;;;;;26.70;91.20;;;;;;5047452;28;19920;-56
2022/07/04 09:42:54;;;;;;;;;;;26.70;91.20;;;;;;5052073;28;22312;-50
2022/07/04 09:45:23;;;;;;;;;;;26.70;91.20;;;;;;5047855;28;20316;-52
2022/07/04 09:47:55;;;;;;;;;;;26.70;91.20;;;;;;5050832;28;19925;-56
2022/07/04 09:50:24;;;;;;;;;;;26.70;91.20;;;;;;5048371;28;19924;-54
2022/07/04 09:52:59;;;;;;;;;;;26.70;91.20;;;;;;5049124;28;20307;-55
2022/07/04 09:55:28;;;;;;;;;;;26.70;91.50;;;;;;5048997;28;19924;-56
2022/07/04 09:57:59;;;;;;;;;;;26.70;91.20;;;;;;5052439;28;20393;-52
2022/07/04 10:00:30;;;;;;;;;;;26.70;91.20;;;;;;5060739;28;20383;-50
2022/07/04 10:03:15;;;;;;;;;;;26.60;91.20;;;;;;5048926;28;19931;-56
2022/07/04 10:05:45;;;;;;;;;;;26.70;91.20;;;;;;5046760;28;20395;-52
2022/07/04 10:08:12;;;;;;;;;;;26.70;91.20;;;;;;5055016;28;20412;-52
2022/07/04 10:10:39;;;;;;;;;;;26.70;91.20;;;;;;5048038;28;20376;-53
2022/07/04 10:13:08;;;;;;;;;;;26.70;91.20;;;;;;5047204;28;19995;-54
2022/07/04 10:15:37;;;;;;;;;;;26.60;91.20;;;;;;5048803;28;20392;-57
2022/07/04 10:18:05;;;;;;;;;;;26.70;91.20;;;;;;5054483;28;19931;-55
2022/07/04 10:20:33;;;;;;;;;;;26.70;91.20;;;;;;5051632;28;19924;-50
2022/07/04 10:23:00;;;;;;;;;;;26.70;91.30;;;;;;5051968;28;19921;-54
2022/07/04 10:25:27;;;;;;;;;;;26.70;91.30;;;;;;5052626;28;20352;-53
2022/07/04 10:27:55;;;;;;;;;;;26.70;91.30;;;;;;5056079;28;19928;-57
2022/07/04 10:30:24;;;;;;;;;;;26.70;91.30;;;;;;5063432;28;20356;-58
2022/07/04 10:32:52;;;;;;;;;;;26.70;91.20;;;;;;5062063;28;19931;-57
2022/07/04 10:35:39;;;;;;;;;;;26.70;91.30;;;;;;5065288;28;20215;-55
2022/07/04 10:38:07;;;;;;;;;;;26.70;91.30;;;;;;5051786;28;19924;-54
2022/07/04 10:40:44;;;;;;;;;;;26.70;91.20;;;;;;5068502;28;19925;-55
2022/07/04 10:43:30;;;;;;;;;;;26.70;91.20;;;;;;5057332;28;19924;-53
2022/07/04 10:46:13;;;;;;;;;;;26.70;91.30;;;;;;5057912;28;20272;-51
2022/07/04 10:48:50;;;;;;;;;;;26.70;91.30;;;;;;5056805;28;19920;-54
2022/07/04 10:51:36;;;;;;;;;;;26.70;91.20;;;;;;5052186;28;19925;-52
2022/07/04 10:54:04;;;;;;;;;;;26.70;91.20;;;;;;5051321;28;19921;-55
2022/07/04 10:56:35;;;;;;;;;;;26.70;91.30;;;;;;5054089;28;19924;-56
2022/07/04 10:59:09;;;;;;;;;;;26.70;91.20;;;;;;5053542;28;19924;-56
2022/07/04 11:01:49;;;;;;;;;;;26.70;91.20;;;;;;5064766;28;19924;-57
2022/07/04 11:04:53;;;;;;;;;;;26.70;91.20;;;;;;5051543;28;20402;-55
2022/07/04 11:07:20;;;;;;;;;;;26.70;91.20;;;;;;5051221;28;19925;-56
2022/07/04 11:10:07;;;;;;;;;;;26.70;91.20;;;;;;5051345;28;19932;-57
2022/07/04 11:12:50;;;;;;;;;;;26.60;91.20;;;;;;5057515;28;19924;-54
2022/07/04 11:15:38;;;;;;;;;;;26.70;91.20;;;;;;5054589;28;19924;-55
2022/07/04 11:18:09;;;;;;;;;;;26.70;91.20;;;;;;5052395;28;20347;-54
2022/07/04 11:20:41;;;;;;;;;;;26.70;91.20;;;;;;5051201;28;19950;-55
2022/07/04 11:23:09;;;;;;;;;;;26.60;91.20;;;;;;5060015;28;19924;-55
2022/07/04 11:25:37;;;;;;;;;;;26.60;91.20;;;;;;5061542;28;19924;-60
2022/07/04 11:28:17;;;;;;;;;;;26.70;91.20;;;;;;5050825;28;19929;-51
2022/07/04 11:31:04;;;;;;;;;;;26.60;91.20;;;;;;5054289;28;19936;-53
2022/07/04 11:33:33;;;;;;;;;;;26.70;91.20;;;;;;5050606;28;20311;-54
2022/07/04 11:36:04;;;;;;;;;;;26.70;91.20;;;;;;5059370;28;19921;-58
2022/07/04 11:38:44;;;;;;;;;;;26.70;91.20;;;;;;5053145;28;20483;-57
2022/07/04 11:46:43;;;;;;;;;;;26.70;91.20;;;;;;5054078;28;19925;-52
2022/07/04 11:49:11;;;;;;;;;;;26.70;91.20;;;;;;5051836;28;19924;-55
2022/07/04 11:51:46;;;;;;;;;;;26.60;91.20;;;;;;5053161;28;19924;-52
2022/07/04 11:54:13;;;;;;;;;;;26.70;91.20;;;;;;5051549;28;19920;-54
2022/07/04 11:57:09;;;;;;;;;;;26.70;91.20;;;;;;5052009;28;19921;-52
2022/07/04 11:59:37;;;;;;;;;;;26.60;91.10;;;;;;5056687;28;19925;-54
2022/07/04 12:02:14;;;;;;;;;;;26.70;91.20;;;;;;5057409;28;19920;-54
2022/07/04 12:04:41;;;;;;;;;;;26.70;91.20;;;;;;5051566;28;19940;-54
2022/07/04 12:07:10;;;;;;;;;;;26.70;91.20;;;;;;5060200;28;20392;-56
2022/07/04 12:09:38;;;;;;;;;;;26.70;91.20;;;;;;5051582;28;19925;-55
2022/07/04 12:12:05;;;;;;;;;;;26.70;91.20;;;;;;5053831;28;20003;-56
2022/07/04 12:14:33;;;;;;;;;;;26.70;91.10;;;;;;5049098;28;19932;-53
2022/07/04 12:17:10;;;;;;;;;;;26.70;91.10;;;;;;5058370;28;19920;-56
2022/07/04 12:19:37;;;;;;;;;;;26.70;91.10;;;;;;5049940;28;19920;-54
2022/07/04 12:22:04;;;;;;;;;;;26.70;91.10;;;;;;5049621;28;19921;-53
2022/07/04 12:24:43;;;;;;;;;;;26.70;91.10;;;;;;5050114;28;19924;-52
2022/07/04 12:27:17;;;;;;;;;;;26.70;91.10;;;;;;5049692;28;19920;-56
2022/07/04 12:29:48;;;;;;;;;;;26.70;91.10;;;;;;5049692;28;19924;-57
2022/07/04 12:32:16;;;;;;;;;;;26.70;91.10;;;;;;5049434;28;19928;-52
2022/07/04 12:34:43;;;;;;;;;;;26.70;91.10;;;;;;5054473;28;19944;-55
2022/07/04 12:37:12;;;;;;;;;;;26.80;91.10;;;;;;5058061;28;19924;-55
2022/07/04 12:39:40;;;;;;;;;;;26.70;91.10;;;;;;5059935;28;19991;-51
2022/07/04 12:42:09;;;;;;;;;;;26.80;91.20;;;;;;5058849;28;20284;-53
2022/07/04 12:44:40;;;;;;;;;;;26.70;91.10;;;;;;5046439;28;19944;-57
2022/07/04 12:47:07;;;;;;;;;;;26.70;91.10;;;;;;5053948;28;19931;-55
2022/07/04 12:49:55;;;;;;;;;;;26.80;91.20;;;;;;5049720;28;19932;-51
2022/07/04 12:52:26;;;;;;;;;;;26.80;91.10;;;;;;5053004;28;19920;-54
2022/07/04 12:55:07;;;;;;;;;;;26.80;91.10;;;;;;5064303;28;19939;-53
2022/07/04 12:57:34;;;;;;;;;;;26.80;91.10;;;;;;5050451;28;19935;-56
2022/07/04 13:00:03;;;;;;;;;;;26.80;91.10;;;;;;5057487;28;19925;-55
2022/07/04 13:02:50;;;;;;;;;;;26.80;91.10;;;;;;5049388;28;19944;-54
2022/07/04 13:05:17;;;;;;;;;;;26.80;91.10;;;;;;5049581;28;19924;-52
2022/07/04 13:07:45;;;;;;;;;;;26.80;91.10;;;;;;5050149;28;19925;-52
2022/07/04 13:10:13;;;;;;;;;;;26.90;91.20;;;;;;5050311;28;19928;-55
2022/07/04 13:12:40;;;;;;;;;;;26.90;91.10;;;;;;5056924;28;19928;-53
2022/07/04 13:15:11;;;;;;;;;;;26.90;91.10;;;;;;5048301;28;19920;-57
2022/07/04 13:17:38;;;;;;;;;;;26.90;91.10;;;;;;5052059;28;19924;-52
2022/07/04 13:20:05;;;;;;;;;;;26.90;91.10;;;;;;5049268;28;20403;-55
2022/07/04 13:22:32;;;;;;;;;;;26.90;91.10;;;;;;5049636;28;19932;-53
2022/07/04 13:25:03;;;;;;;;;;;27.00;91.10;;;;;;5051270;28;20284;-57
2022/07/04 13:27:30;;;;;;;;;;;27.00;91.00;;;;;;5053222;28;20307;-57
2022/07/04 13:29:58;;;;;;;;;;;27.00;91.00;;;;;;5050960;28;19965;-57
2022/07/04 13:32:25;;;;;;;;;;;27.10;91.10;;;;;;5049444;28;19921;-51
2022/07/04 13:34:52;;;;;;;;;;;27.10;91.00;;;;;;5049302;28;19928;-54
2022/07/04 13:37:20;;;;;;;;;;;27.10;91.00;;;;;;5049086;28;19925;-56
2022/07/04 13:39:47;;;;;;;;;;;27.10;90.90;;;;;;5048546;28;19925;-53
2022/07/04 13:45:03;;;;;;;;;;;27.20;90.90;;;;;;5055119;28;19927;-54
2022/07/04 13:47:30;;;;;;;;;;;27.30;90.90;;;;;;5057466;28;19924;-53
2022/07/04 13:49:58;;;;;;;;;;;27.30;90.90;;;;;;5049047;28;19927;-56
2022/07/04 13:52:25;;;;;;;;;;;27.40;90.90;;;;;;5059347;28;19924;-51
2022/07/04 13:54:52;;;;;;;;;;;27.40;90.80;;;;;;5052794;28;19921;-55
2022/07/04 13:57:20;;;;;;;;;;;27.40;90.80;;;;;;5070888;28;19931;-49
2022/07/04 13:59:47;;;;;;;;;;;27.40;90.80;;;;;;5056392;28;19924;-52
2022/07/04 14:02:14;;;;;;;;;;;27.50;90.80;;;;;;5051690;28;19925;-54
2022/07/04 14:04:41;;;;;;;;;;;27.50;90.80;;;;;;5047583;28;20300;-54
2022/07/04 14:07:08;;;;;;;;;;;27.50;90.70;;;;;;5048252;28;19925;-52
2022/07/04 14:09:43;;;;;;;;;;;27.60;90.70;;;;;;5047077;28;19927;-55
2022/07/04 14:12:10;;;;;;;;;;;27.60;90.70;;;;;;5053101;28;20455;-55
2022/07/04 14:14:37;;;;;;;;;;;27.60;90.70;;;;;;5047131;28;20246;-56
2022/07/04 14:17:04;;;;;;;;;;;27.70;90.70;;;;;;5057511;28;19931;-58
2022/07/04 14:19:52;;;;;;;;;;;27.70;90.60;;;;;;5057950;28;20312;-51
2022/07/04 14:22:19;;;;;;;;;;;27.70;90.60;;;;;;5048188;28;19920;-54
2022/07/04 14:24:46;;;;;;;;;;;27.80;90.60;;;;;;5048187;28;20395;-54
2022/07/04 14:27:14;;;;;;;;;;;27.80;90.60;;;;;;5048667;28;19928;-51
2022/07/04 14:29:41;;;;;;;;;;;27.90;90.60;;;;;;5063473;28;20265;-53
2022/07/04 14:32:10;;;;;;;;;;;27.90;90.50;;;;;;5048009;28;19920;-55
2022/07/04 14:34:37;;;;;;;;;;;27.90;90.50;;;;;;5048200;28;19924;-57
2022/07/04 14:37:04;;;;;;;;;;;28.00;90.40;;;;;;5048685;28;19936;-54
2022/07/04 14:39:31;;;;;;;;;;;28.00;90.40;;;;;;5047371;28;19946;-57
2022/07/04 14:41:58;;;;;;;;;;;28.10;90.30;;;;;;5050385;28;19924;-57
2022/07/04 14:44:25;;;;;;;;;;;28.10;90.30;;;;;;5046906;28;19925;-57